createdAt,value
2018-11-20T00:00:48.634Z,4.08
2018-11-20T00:01:48.646Z,4.16
2018-11-20T00:02:48.611Z,4.20
2018-11-20T00:03:48.600Z,4.17
2018-11-20T00:04:48.589Z,4.14
2018-11-20T00:05:48.580Z,4.17
2018-11-20T00:06:48.602Z,4.11
2018-11-20T00:07:48.563Z,4.21
2018-11-20T00:08:48.550Z,4.11
2018-11-20T00:09:48.538Z,4.08
2018-11-20T00:10:48.529Z,4.07
2018-11-20T00:11:48.518Z,4.08
2018-11-20T00:12:48.539Z,4.11
2018-11-20T00:13:48.513Z,4.11
2018-11-20T00:14:48.486Z,4.14
2018-11-20T00:15:48.478Z,4.16
2018-11-20T00:16:48.467Z,4.07
2018-11-20T00:17:48.452Z,4.16
2018-11-20T00:18:48.477Z,4.08
2018-11-20T00:19:48.434Z,4.17
2018-11-20T00:20:48.425Z,4.13
2018-11-20T00:21:48.412Z,4.20
2018-11-20T00:22:48.410Z,4.10
2018-11-20T00:23:48.392Z,4.13
2018-11-20T00:24:48.410Z,4.08
2018-11-20T00:25:48.371Z,4.11
2018-11-20T00:26:48.364Z,4.08
2018-11-20T00:27:48.351Z,4.04
2018-11-20T00:28:48.340Z,4.08
2018-11-20T00:29:48.356Z,4.10
2018-11-20T00:30:48.320Z,4.04
2018-11-20T00:31:48.308Z,4.07
2018-11-20T00:32:48.301Z,4.00
2018-11-20T00:33:48.288Z,3.96
2018-11-20T00:34:48.277Z,4.00
2018-11-20T00:35:48.290Z,3.89
2018-11-20T00:36:48.258Z,3.95
2018-11-20T00:37:48.246Z,3.90
2018-11-20T00:38:48.236Z,3.93
2018-11-20T00:39:48.228Z,4.02
2018-11-20T00:40:48.264Z,3.96
2018-11-20T00:41:48.204Z,3.98
2018-11-20T00:42:48.199Z,3.92
2018-11-20T00:43:48.184Z,4.00
2018-11-20T00:44:48.178Z,4.00
2018-11-20T00:45:48.160Z,3.93
2018-11-20T00:46:48.196Z,4.02
2018-11-20T00:47:48.138Z,3.98
2018-11-20T00:48:48.132Z,3.88
2018-11-20T00:49:48.119Z,3.93
2018-11-20T00:50:48.115Z,3.89
2018-11-20T00:51:48.098Z,3.92
2018-11-20T00:52:48.109Z,3.89
2018-11-20T00:53:48.081Z,3.92
2018-11-20T00:54:48.065Z,3.89
2018-11-20T00:55:48.055Z,3.84
2018-11-20T00:56:48.045Z,3.92
2018-11-20T00:57:48.081Z,3.95
2018-11-20T00:58:48.025Z,3.95
2018-11-20T00:59:48.014Z,3.90
2018-11-20T01:00:48.013Z,3.89
2018-11-20T01:01:47.993Z,3.88
2018-11-20T01:02:47.983Z,3.89
2018-11-20T01:03:48.036Z,3.88
2018-11-20T01:04:47.964Z,3.82
2018-11-20T01:05:47.953Z,3.82
2018-11-20T01:06:47.939Z,3.82
2018-11-20T01:07:47.934Z,3.84
2018-11-20T01:08:47.923Z,3.78
2018-11-20T01:09:47.960Z,3.82
2018-11-20T01:10:47.898Z,3.82
2018-11-20T01:11:47.887Z,3.89
2018-11-20T01:12:47.876Z,3.82
2018-11-20T01:13:47.865Z,3.88
2018-11-20T01:14:47.855Z,3.86
2018-11-20T01:15:47.869Z,3.81
2018-11-20T01:16:47.835Z,3.82
2018-11-20T01:17:47.824Z,3.77
2018-11-20T01:18:47.814Z,3.89
2018-11-20T01:19:47.805Z,3.80
2018-11-20T01:20:47.836Z,3.84
2018-11-20T01:21:47.780Z,3.82
2018-11-20T01:22:47.772Z,3.81
2018-11-20T01:23:47.762Z,3.78
2018-11-20T01:24:47.749Z,3.84
2018-11-20T01:25:47.741Z,3.75
2018-11-20T01:26:47.753Z,3.82
2018-11-20T01:27:47.734Z,3.81
2018-11-20T01:28:47.710Z,3.80
2018-11-20T01:29:47.695Z,3.86
2018-11-20T01:30:47.690Z,3.80
2018-11-20T01:31:47.710Z,3.77
2018-11-20T01:32:47.665Z,3.77
2018-11-20T01:33:47.657Z,3.81
2018-11-20T01:34:47.643Z,3.75
2018-11-20T01:35:47.632Z,3.72
2018-11-20T01:36:47.623Z,3.77
2018-11-20T01:37:47.649Z,3.75
2018-11-20T01:38:47.601Z,3.78
2018-11-20T01:39:47.591Z,3.75
2018-11-20T01:40:47.581Z,3.75
2018-11-20T01:41:47.569Z,3.84
2018-11-20T01:42:47.590Z,3.78
2018-11-20T01:43:47.550Z,3.84
2018-11-20T01:44:47.536Z,3.88
2018-11-20T01:45:47.577Z,3.86
2018-11-20T01:46:47.518Z,3.82
2018-11-20T01:47:47.507Z,3.81
2018-11-20T01:48:47.518Z,3.81
2018-11-20T01:49:47.486Z,3.86
2018-11-20T01:50:47.476Z,3.78
2018-11-20T01:51:47.472Z,3.78
2018-11-20T01:52:47.457Z,3.82
2018-11-20T01:53:47.473Z,3.80
2018-11-20T01:54:47.432Z,3.77
2018-11-20T01:55:47.428Z,3.88
2018-11-20T01:56:47.411Z,3.82
2018-11-20T01:57:47.405Z,3.82
2018-11-20T01:58:47.418Z,3.82
2018-11-20T01:59:47.382Z,3.82
2018-11-20T02:00:47.368Z,3.84
2018-11-20T02:01:47.361Z,3.82
2018-11-20T02:02:47.347Z,3.82
2018-11-20T02:03:47.338Z,3.88
2018-11-20T02:04:47.352Z,3.82
2018-11-20T02:05:47.315Z,3.88
2018-11-20T02:06:47.306Z,3.89
2018-11-20T02:07:47.295Z,3.82
2018-11-20T02:08:47.286Z,3.84
2018-11-20T02:09:47.303Z,3.82
2018-11-20T02:10:47.854Z,3.86
2018-11-20T02:11:47.253Z,3.89
2018-11-20T02:12:47.243Z,3.86
2018-11-20T02:13:47.233Z,3.89
2018-11-20T02:14:47.223Z,3.82
2018-11-20T02:15:47.237Z,3.75
2018-11-20T02:16:47.202Z,3.78
2018-11-20T02:17:47.192Z,3.86
2018-11-20T02:18:47.181Z,3.81
2018-11-20T02:19:47.170Z,3.81
2018-11-20T02:20:47.342Z,3.81
2018-11-20T02:21:47.152Z,3.74
2018-11-20T02:22:47.138Z,3.80
2018-11-20T02:23:47.126Z,3.74
2018-11-20T02:24:47.118Z,3.80
2018-11-20T02:25:47.136Z,3.70
2018-11-20T02:26:47.097Z,3.72
2018-11-20T02:27:47.090Z,3.74
2018-11-20T02:28:47.077Z,3.72
2018-11-20T02:29:47.066Z,3.70
2018-11-20T02:30:47.058Z,3.74
2018-11-20T02:31:47.073Z,3.71
2018-11-20T02:32:47.033Z,3.75
2018-11-20T02:33:47.024Z,3.63
2018-11-20T02:34:47.013Z,3.67
2018-11-20T02:35:47.001Z,3.59
2018-11-20T02:36:47.032Z,3.63
2018-11-20T02:37:46.983Z,3.59
2018-11-20T02:38:46.969Z,3.60
2018-11-20T02:39:46.968Z,3.56
2018-11-20T02:40:46.950Z,3.57
2018-11-20T02:41:46.962Z,3.52
2018-11-20T02:42:46.958Z,3.57
2018-11-20T02:43:46.917Z,3.46
2018-11-20T02:44:46.905Z,3.57
2018-11-20T02:45:46.941Z,3.62
2018-11-20T02:46:46.884Z,3.52
2018-11-20T02:47:46.874Z,3.60
2018-11-20T02:48:46.886Z,3.57
2018-11-20T02:49:46.853Z,3.41
2018-11-20T02:50:46.844Z,3.42
2018-11-20T02:51:46.833Z,3.53
2018-11-20T02:52:46.823Z,3.52
2018-11-20T02:53:46.850Z,3.44
2018-11-20T02:54:46.800Z,3.52
2018-11-20T02:55:46.790Z,3.37
2018-11-20T02:56:46.780Z,3.46
2018-11-20T02:57:46.771Z,3.49
2018-11-20T02:58:46.757Z,3.46
2018-11-20T02:59:46.769Z,3.50
2018-11-20T03:00:46.738Z,3.35
2018-11-20T03:01:46.727Z,3.42
2018-11-20T03:02:46.715Z,3.35
2018-11-20T03:03:46.760Z,3.42
2018-11-20T03:04:46.722Z,3.34
2018-11-20T03:05:46.683Z,3.33
2018-11-20T03:06:46.673Z,3.33
2018-11-20T03:07:46.663Z,3.26
2018-11-20T03:08:46.653Z,3.34
2018-11-20T03:09:46.641Z,3.30
2018-11-20T03:10:46.654Z,3.31
2018-11-20T03:11:46.624Z,3.28
2018-11-20T03:12:46.608Z,3.35
2018-11-20T03:13:46.599Z,3.33
2018-11-20T03:14:46.590Z,3.31
2018-11-20T03:15:46.599Z,3.30
2018-11-20T03:16:46.568Z,3.39
2018-11-20T03:17:46.556Z,3.28
2018-11-20T03:18:46.546Z,3.34
2018-11-20T03:19:46.536Z,3.28
2018-11-20T03:20:46.556Z,3.28
2018-11-20T03:21:46.512Z,3.35
2018-11-20T03:22:46.503Z,3.35
2018-11-20T03:23:46.495Z,3.28
2018-11-20T03:24:46.482Z,3.31
2018-11-20T03:25:46.470Z,3.31
2018-11-20T03:26:46.488Z,3.33
2018-11-20T03:27:46.449Z,3.31
2018-11-20T03:28:46.439Z,3.30
2018-11-20T03:29:46.428Z,3.30
2018-11-20T03:30:46.421Z,3.34
2018-11-20T03:31:46.434Z,3.34
2018-11-20T03:32:46.397Z,3.31
2018-11-20T03:33:46.385Z,3.31
2018-11-20T03:34:46.376Z,3.31
2018-11-20T03:35:46.364Z,3.31
2018-11-20T03:36:46.357Z,3.30
2018-11-20T03:37:46.373Z,3.41
2018-11-20T03:38:46.337Z,3.35
2018-11-20T03:39:46.322Z,3.30
2018-11-20T03:40:46.311Z,3.30
2018-11-20T03:41:46.310Z,3.30
2018-11-20T03:42:46.341Z,3.31
2018-11-20T03:43:46.278Z,3.34
2018-11-20T03:44:46.271Z,3.33
2018-11-20T03:45:46.261Z,3.35
2018-11-20T03:46:46.247Z,3.41
2018-11-20T03:47:46.265Z,3.28
2018-11-20T03:48:46.249Z,3.35
2018-11-20T03:49:46.216Z,3.33
2018-11-20T03:50:46.209Z,3.37
2018-11-20T03:51:46.199Z,3.31
2018-11-20T03:52:46.199Z,3.33
2018-11-20T03:53:46.205Z,3.34
2018-11-20T03:54:46.166Z,3.34
2018-11-20T03:55:46.152Z,3.26
2018-11-20T03:56:46.141Z,3.33
2018-11-20T03:57:46.130Z,3.41
2018-11-20T03:58:46.120Z,3.37
2018-11-20T03:59:46.131Z,3.35
2018-11-20T04:00:46.102Z,3.39
2018-11-20T04:01:46.089Z,3.35
2018-11-20T04:02:46.078Z,3.37
2018-11-20T04:03:46.065Z,3.31
2018-11-20T04:04:46.080Z,3.28
2018-11-20T04:05:46.045Z,3.28
2018-11-20T04:06:46.034Z,3.31
2018-11-20T04:07:46.027Z,3.33
2018-11-20T04:08:46.027Z,3.31
2018-11-20T04:09:46.030Z,3.33
2018-11-20T04:10:45.992Z,3.31
2018-11-20T04:11:45.980Z,3.39
2018-11-20T04:12:45.971Z,3.30
2018-11-20T04:13:45.990Z,3.35
2018-11-20T04:14:45.983Z,3.35
2018-11-20T04:15:45.941Z,3.37
2018-11-20T04:16:45.929Z,3.31
2018-11-20T04:17:45.984Z,3.34
2018-11-20T04:18:45.910Z,3.35
2018-11-20T04:19:45.896Z,3.35
2018-11-20T04:20:45.912Z,3.37
2018-11-20T04:21:45.876Z,3.34
2018-11-20T04:22:45.865Z,3.41
2018-11-20T04:23:45.854Z,3.42
2018-11-20T04:24:45.849Z,3.34
2018-11-20T04:25:45.861Z,3.33
2018-11-20T04:26:45.822Z,3.31
2018-11-20T04:27:45.812Z,3.30
2018-11-20T04:28:45.807Z,3.31
2018-11-20T04:29:45.790Z,3.31
2018-11-20T04:30:45.785Z,3.34
2018-11-20T04:31:45.794Z,3.34
2018-11-20T04:32:45.758Z,3.35
2018-11-20T04:33:45.748Z,3.37
2018-11-20T04:34:45.737Z,3.37
2018-11-20T04:35:45.728Z,3.34
2018-11-20T04:36:45.739Z,3.33
2018-11-20T04:37:45.712Z,3.34
2018-11-20T04:38:45.696Z,3.28
2018-11-20T04:39:45.683Z,3.34
2018-11-20T04:40:45.673Z,3.31
2018-11-20T04:41:45.709Z,3.28
2018-11-20T04:42:45.656Z,3.25
2018-11-20T04:43:45.644Z,3.37
2018-11-20T04:44:45.632Z,3.41
2018-11-20T04:45:45.620Z,3.33
2018-11-20T04:46:45.611Z,3.33
2018-11-20T04:47:45.621Z,3.30
2018-11-20T04:48:45.589Z,3.37
2018-11-20T04:49:45.590Z,3.35
2018-11-20T04:50:45.568Z,3.35
2018-11-20T04:51:45.557Z,3.35
2018-11-20T04:52:45.573Z,3.31
2018-11-20T04:53:45.535Z,3.34
2018-11-20T04:54:45.525Z,3.49
2018-11-20T04:55:45.515Z,3.46
2018-11-20T04:56:45.503Z,3.42
2018-11-20T04:57:45.595Z,3.50
2018-11-20T04:58:45.482Z,3.33
2018-11-20T04:59:45.474Z,3.34
2018-11-20T05:00:45.463Z,3.33
2018-11-20T05:01:45.450Z,3.33
2018-11-20T05:02:45.440Z,3.34
2018-11-20T05:03:45.454Z,3.33
2018-11-20T05:04:45.418Z,3.35
2018-11-20T05:05:45.410Z,3.42
2018-11-20T05:06:45.472Z,3.35
2018-11-20T05:07:45.388Z,3.31
2018-11-20T05:08:45.402Z,3.37
2018-11-20T05:09:45.365Z,3.44
2018-11-20T05:10:45.355Z,3.35
2018-11-20T05:11:45.347Z,3.45
2018-11-20T05:12:45.333Z,3.37
2018-11-20T05:13:45.324Z,3.44
2018-11-20T05:14:45.335Z,3.35
2018-11-20T05:15:45.303Z,3.33
2018-11-20T05:16:45.291Z,3.37
2018-11-20T05:17:45.280Z,3.33
2018-11-20T05:18:45.273Z,3.49
2018-11-20T05:19:45.283Z,3.49
2018-11-20T05:20:45.250Z,3.34
2018-11-20T05:21:45.240Z,3.33
2018-11-20T05:22:45.228Z,3.31
2018-11-20T05:23:45.217Z,3.33
2018-11-20T05:24:45.236Z,3.42
2018-11-20T05:25:45.196Z,3.49
2018-11-20T05:26:45.190Z,3.34
2018-11-20T05:27:45.175Z,3.45
2018-11-20T05:28:45.163Z,3.39
2018-11-20T05:29:45.162Z,3.35
2018-11-20T05:30:45.186Z,3.35
2018-11-20T05:31:45.133Z,3.28
2018-11-20T05:32:45.122Z,3.35
2018-11-20T05:33:45.112Z,3.39
2018-11-20T05:34:45.101Z,3.37
2018-11-20T05:35:45.123Z,3.33
2018-11-20T05:36:45.081Z,3.39
2018-11-20T05:37:45.068Z,3.37
2018-11-20T05:38:45.059Z,3.34
2018-11-20T05:39:45.047Z,3.37
2018-11-20T05:40:45.038Z,3.34
2018-11-20T05:41:45.049Z,3.35
2018-11-20T05:42:45.017Z,3.52
2018-11-20T05:43:45.006Z,3.39
2018-11-20T05:44:44.994Z,3.46
2018-11-20T05:45:44.985Z,3.46
2018-11-20T05:46:45.082Z,3.44
2018-11-20T05:47:44.962Z,3.46
2018-11-20T05:48:44.968Z,3.52
2018-11-20T05:49:44.945Z,3.39
2018-11-20T05:50:44.931Z,3.42
2018-11-20T05:51:44.920Z,3.46
2018-11-20T05:52:44.970Z,3.45
2018-11-20T05:53:44.900Z,3.44
2018-11-20T05:54:44.892Z,3.39
2018-11-20T05:55:44.879Z,3.37
2018-11-20T05:56:44.870Z,3.49
2018-11-20T05:57:44.880Z,3.34
2018-11-20T05:58:44.846Z,3.33
2018-11-20T05:59:44.837Z,3.39
2018-11-20T06:00:44.828Z,3.37
2018-11-20T06:01:44.815Z,3.34
2018-11-20T06:02:44.826Z,3.30
2018-11-20T06:03:44.794Z,3.34
2018-11-20T06:04:44.783Z,3.34
2018-11-20T06:05:44.773Z,3.37
2018-11-20T06:06:44.761Z,3.34
2018-11-20T06:07:44.752Z,3.30
2018-11-20T06:08:44.765Z,3.34
2018-11-20T06:09:44.730Z,3.50
2018-11-20T06:10:44.723Z,3.46
2018-11-20T06:11:44.713Z,3.33
2018-11-20T06:12:44.744Z,3.46
2018-11-20T06:13:44.714Z,3.34
2018-11-20T06:14:44.682Z,3.33
2018-11-20T06:15:44.670Z,3.50
2018-11-20T06:16:44.658Z,3.46
2018-11-20T06:17:44.657Z,3.39
2018-11-20T06:18:44.714Z,3.41
2018-11-20T06:19:44.669Z,3.44
2018-11-20T06:20:44.616Z,3.49
2018-11-20T06:21:44.606Z,3.49
2018-11-20T06:22:44.596Z,3.46
2018-11-20T06:23:44.590Z,3.52
2018-11-20T06:24:44.610Z,3.45
2018-11-20T06:25:44.564Z,3.42
2018-11-20T06:26:44.557Z,3.52
2018-11-20T06:27:44.546Z,3.53
2018-11-20T06:28:44.643Z,3.49
2018-11-20T06:29:44.551Z,3.53
2018-11-20T06:30:44.514Z,3.57
2018-11-20T06:31:44.506Z,3.50
2018-11-20T06:32:44.493Z,3.49
2018-11-20T06:33:44.482Z,3.53
2018-11-20T06:34:44.541Z,3.53
2018-11-20T06:35:44.471Z,3.56
2018-11-20T06:36:44.453Z,3.56
2018-11-20T06:37:44.440Z,3.53
2018-11-20T06:38:44.431Z,3.54
2018-11-20T06:39:44.419Z,3.57
2018-11-20T06:40:44.442Z,3.50
2018-11-20T06:41:44.398Z,3.60
2018-11-20T06:42:44.389Z,3.56
2018-11-20T06:43:44.376Z,3.63
2018-11-20T06:44:44.365Z,3.54
2018-11-20T06:45:44.385Z,3.56
2018-11-20T06:46:44.346Z,3.60
2018-11-20T06:47:44.334Z,3.63
2018-11-20T06:48:44.322Z,3.62
2018-11-20T06:49:44.313Z,3.63
2018-11-20T06:50:44.305Z,3.62
2018-11-20T06:51:44.314Z,3.52
2018-11-20T06:52:44.321Z,3.63
2018-11-20T06:53:44.354Z,3.63
2018-11-20T06:54:44.260Z,3.59
2018-11-20T06:55:44.299Z,3.60
2018-11-20T06:56:44.238Z,3.59
2018-11-20T06:57:44.229Z,3.54
2018-11-20T06:58:44.218Z,3.59
2018-11-20T06:59:44.212Z,3.57
2018-11-20T07:00:44.199Z,3.67
2018-11-20T07:01:44.214Z,3.63
2018-11-20T07:02:44.175Z,3.63
2018-11-20T07:03:44.166Z,3.62
2018-11-20T07:04:44.155Z,3.70
2018-11-20T07:05:44.143Z,3.70
2018-11-20T07:06:44.156Z,3.70
2018-11-20T07:07:44.401Z,3.63
2018-11-20T07:08:44.223Z,3.63
2018-11-20T07:09:44.104Z,3.71
2018-11-20T07:10:44.094Z,3.63
2018-11-20T07:11:44.103Z,3.62
2018-11-20T07:12:44.070Z,3.71
2018-11-20T07:13:44.060Z,3.62
2018-11-20T07:14:44.049Z,3.59
2018-11-20T07:15:44.270Z,3.63
2018-11-20T07:16:44.061Z,3.63
2018-11-20T07:17:44.016Z,3.77
2018-11-20T07:18:44.005Z,3.68
2018-11-20T07:19:43.995Z,3.70
2018-11-20T07:20:43.985Z,3.75
2018-11-20T07:21:43.976Z,3.68
2018-11-20T07:22:44.014Z,3.68
2018-11-20T07:23:43.959Z,3.71
2018-11-20T07:24:43.996Z,3.75
2018-11-20T07:25:43.932Z,3.72
2018-11-20T07:26:43.931Z,3.75
2018-11-20T07:27:43.938Z,3.74
2018-11-20T07:28:43.900Z,3.74
2018-11-20T07:29:43.932Z,3.71
2018-11-20T07:30:44.023Z,3.81
2018-11-20T07:31:43.968Z,3.74
2018-11-20T07:32:43.884Z,3.80
2018-11-20T07:33:43.847Z,3.81
2018-11-20T07:34:43.852Z,3.81
2018-11-20T07:35:43.829Z,3.78
2018-11-20T07:36:43.856Z,3.78
2018-11-20T07:37:43.806Z,3.81
2018-11-20T07:38:43.820Z,3.77
2018-11-20T07:39:43.798Z,3.81
2018-11-20T07:40:43.774Z,3.84
2018-11-20T07:41:43.765Z,3.78
2018-11-20T07:42:43.754Z,3.86
2018-11-20T07:43:43.856Z,3.80
2018-11-20T07:44:43.732Z,3.86
2018-11-20T07:45:43.721Z,3.80
2018-11-20T07:46:43.712Z,3.81
2018-11-20T07:47:43.700Z,3.81
2018-11-20T07:48:43.714Z,3.82
2018-11-20T07:49:43.679Z,3.81
2018-11-20T07:50:43.668Z,3.90
2018-11-20T07:51:43.695Z,3.81
2018-11-20T07:52:43.648Z,3.80
2018-11-20T07:53:43.668Z,3.88
2018-11-20T07:54:43.628Z,3.90
2018-11-20T07:55:43.624Z,3.84
2018-11-20T07:56:43.606Z,3.93
2018-11-20T07:57:43.595Z,3.96
2018-11-20T07:58:43.585Z,3.90
2018-11-20T07:59:43.598Z,3.96
2018-11-20T08:00:43.565Z,3.92
2018-11-20T08:01:43.556Z,4.00
2018-11-20T08:02:43.542Z,3.98
2018-11-20T08:03:43.533Z,3.96
2018-11-20T08:04:43.550Z,4.02
2018-11-20T08:05:43.512Z,3.96
2018-11-20T08:06:43.505Z,3.89
2018-11-20T08:07:43.491Z,3.98
2018-11-20T08:08:43.564Z,3.98
2018-11-20T08:09:43.560Z,4.08
2018-11-20T08:10:43.500Z,3.99
2018-11-20T08:11:43.449Z,4.08
2018-11-20T08:12:43.438Z,4.10
2018-11-20T08:13:43.429Z,4.08
2018-11-20T08:14:43.418Z,4.08
2018-11-20T08:15:43.463Z,4.17
2018-11-20T08:16:43.397Z,4.10
2018-11-20T08:17:43.387Z,4.10
2018-11-20T08:18:43.376Z,4.18
2018-11-20T08:19:43.366Z,4.13
2018-11-20T08:20:43.385Z,4.26
2018-11-20T08:21:43.345Z,4.32
2018-11-20T08:22:43.338Z,4.24
2018-11-20T08:23:43.326Z,4.26
2018-11-20T08:24:43.314Z,4.26
2018-11-20T08:25:43.434Z,4.28
2018-11-20T08:26:43.356Z,4.25
2018-11-20T08:27:43.284Z,4.29
2018-11-20T08:28:43.318Z,4.28
2018-11-20T08:29:43.263Z,4.34
2018-11-20T08:30:43.253Z,4.32
2018-11-20T08:31:43.266Z,4.34
2018-11-20T08:32:43.243Z,4.35
2018-11-20T08:33:43.241Z,4.35
2018-11-20T08:34:43.214Z,4.35
2018-11-20T08:35:43.203Z,4.36
2018-11-20T08:36:43.224Z,4.35
2018-11-20T08:37:43.184Z,4.39
2018-11-20T08:38:43.174Z,4.46
2018-11-20T08:39:43.161Z,4.43
2018-11-20T08:40:43.149Z,4.46
2018-11-20T08:41:43.139Z,4.38
2018-11-20T08:42:43.151Z,4.43
2018-11-20T08:43:43.117Z,4.46
2018-11-20T08:44:43.107Z,4.38
2018-11-20T08:45:43.098Z,4.36
2018-11-20T08:46:43.088Z,4.44
2018-11-20T08:47:43.176Z,4.54
2018-11-20T08:48:43.068Z,4.47
2018-11-20T08:49:43.058Z,4.46
2018-11-20T08:50:43.046Z,4.44
2018-11-20T08:51:43.036Z,4.53
2018-11-20T08:52:43.054Z,4.43
2018-11-20T08:53:43.076Z,4.47
2018-11-20T08:54:43.005Z,4.50
2018-11-20T08:55:42.994Z,4.44
2018-11-20T08:56:42.983Z,4.44
2018-11-20T08:57:42.973Z,4.56
2018-11-20T08:58:42.986Z,4.57
2018-11-20T08:59:42.952Z,4.64
2018-11-20T09:00:42.956Z,4.57
2018-11-20T09:01:42.930Z,4.65
2018-11-20T09:02:43.015Z,4.59
2018-11-20T09:03:42.947Z,4.65
2018-11-20T09:04:42.901Z,4.62
2018-11-20T09:05:42.891Z,4.59
2018-11-20T09:06:42.876Z,4.65
2018-11-20T09:07:42.867Z,4.68
2018-11-20T09:08:42.884Z,4.68
2018-11-20T09:09:42.876Z,4.68
2018-11-20T09:10:42.906Z,4.68
2018-11-20T09:11:42.822Z,4.74
2018-11-20T09:12:42.814Z,4.84
2018-11-20T09:13:42.805Z,4.84
2018-11-20T09:14:42.817Z,4.75
2018-11-20T09:15:42.780Z,4.80
2018-11-20T09:16:42.795Z,4.86
2018-11-20T09:17:42.808Z,4.91
2018-11-20T09:18:42.747Z,4.88
2018-11-20T09:19:42.761Z,4.88
2018-11-20T09:20:42.727Z,4.97
2018-11-20T09:21:42.715Z,4.97
2018-11-20T09:22:42.707Z,5.04
2018-11-20T09:23:42.702Z,5.02
2018-11-20T09:24:42.708Z,5.02
2018-11-20T09:25:42.786Z,5.09
2018-11-20T09:26:42.660Z,5.14
2018-11-20T09:27:42.655Z,5.12
2018-11-20T09:28:42.640Z,5.19
2018-11-20T09:29:42.657Z,5.12
2018-11-20T09:30:42.617Z,5.19
2018-11-20T09:31:42.607Z,5.14
2018-11-20T09:32:42.594Z,5.17
2018-11-20T09:33:42.587Z,5.24
2018-11-20T09:34:42.665Z,5.22
2018-11-20T09:35:42.676Z,5.20
2018-11-20T09:36:42.551Z,5.22
2018-11-20T09:37:42.544Z,5.26
2018-11-20T09:38:42.532Z,5.23
2018-11-20T09:39:42.520Z,5.26
2018-11-20T09:40:42.547Z,5.35
2018-11-20T09:41:42.499Z,5.38
2018-11-20T09:42:42.493Z,5.26
2018-11-20T09:43:42.478Z,5.40
2018-11-20T09:44:42.475Z,5.33
2018-11-20T09:45:42.481Z,5.32
2018-11-20T09:46:42.532Z,5.33
2018-11-20T09:47:42.434Z,5.33
2018-11-20T09:48:42.426Z,5.38
2018-11-20T09:49:42.418Z,5.41
2018-11-20T09:50:42.480Z,5.37
2018-11-20T09:51:42.390Z,5.38
2018-11-20T09:52:42.470Z,5.42
2018-11-20T09:53:42.369Z,5.45
2018-11-20T09:54:42.359Z,5.48
2018-11-20T09:55:42.350Z,5.49
2018-11-20T09:56:42.363Z,5.49
2018-11-20T09:57:42.327Z,5.55
2018-11-20T09:58:42.325Z,5.52
2018-11-20T09:59:42.371Z,5.55
2018-11-20T10:00:42.294Z,5.48
2018-11-20T10:01:42.311Z,5.63
2018-11-20T10:02:42.276Z,5.58
2018-11-20T10:03:42.317Z,5.67
2018-11-20T10:04:42.251Z,5.67
2018-11-20T10:05:42.239Z,5.73
2018-11-20T10:06:42.262Z,5.63
2018-11-20T10:07:42.224Z,5.70
2018-11-20T10:08:42.213Z,5.75
2018-11-20T10:09:42.197Z,5.69
2018-11-20T10:10:42.189Z,5.63
2018-11-20T10:11:42.187Z,5.75
2018-11-20T10:12:42.192Z,5.67
2018-11-20T10:13:42.153Z,5.67
2018-11-20T10:14:42.245Z,5.59
2018-11-20T10:15:42.131Z,5.62
2018-11-20T10:16:42.129Z,5.62
2018-11-20T10:17:42.135Z,5.75
2018-11-20T10:18:42.099Z,5.69
2018-11-20T10:19:42.089Z,5.66
2018-11-20T10:20:42.081Z,5.66
2018-11-20T10:21:42.202Z,5.66
2018-11-20T10:22:42.082Z,5.52
2018-11-20T10:23:42.108Z,5.58
2018-11-20T10:24:42.106Z,5.66
2018-11-20T10:25:42.259Z,5.65
2018-11-20T10:26:42.013Z,5.70
2018-11-20T10:27:42.042Z,5.66
2018-11-20T10:28:42.007Z,5.65
2018-11-20T10:29:41.983Z,5.70
2018-11-20T10:30:41.971Z,5.74
2018-11-20T10:31:41.979Z,5.70
2018-11-20T10:32:41.981Z,5.65
2018-11-20T10:33:41.944Z,5.63
2018-11-20T10:34:41.992Z,5.73
2018-11-20T10:35:41.918Z,5.67
2018-11-20T10:36:41.914Z,5.66
2018-11-20T10:37:41.924Z,5.70
2018-11-20T10:38:41.890Z,5.62
2018-11-20T10:39:41.877Z,5.66
2018-11-20T10:40:41.973Z,5.67
2018-11-20T10:41:41.854Z,5.63
2018-11-20T10:42:41.872Z,5.70
2018-11-20T10:43:41.835Z,5.77
2018-11-20T10:44:41.822Z,5.83
2018-11-20T10:45:41.831Z,5.80
2018-11-20T10:46:41.932Z,5.81
2018-11-20T10:47:41.801Z,5.81
2018-11-20T10:48:41.803Z,5.78
2018-11-20T10:49:41.768Z,5.81
2018-11-20T10:50:41.760Z,5.80
2018-11-20T10:51:41.765Z,5.90
2018-11-20T10:52:41.871Z,5.80
2018-11-20T10:53:41.750Z,5.74
2018-11-20T10:54:41.723Z,5.70
2018-11-20T10:55:41.708Z,5.67
2018-11-20T10:56:41.703Z,5.66
2018-11-20T10:57:41.684Z,5.62
2018-11-20T10:58:41.696Z,5.70
2018-11-20T10:59:41.810Z,5.62
2018-11-20T11:00:41.656Z,5.73
2018-11-20T11:01:41.643Z,5.69
2018-11-20T11:02:42.211Z,5.81
2018-11-20T11:03:41.645Z,5.73
2018-11-20T11:04:41.629Z,5.75
2018-11-20T11:05:41.600Z,5.87
2018-11-20T11:06:41.853Z,5.84
2018-11-20T11:07:41.695Z,5.92
2018-11-20T11:08:41.598Z,5.92
2018-11-20T11:09:41.556Z,5.96
2018-11-20T11:10:41.545Z,5.90
2018-11-20T11:11:41.614Z,5.96
2018-11-20T11:12:41.606Z,5.92
2018-11-20T11:13:41.514Z,5.96
2018-11-20T11:14:41.593Z,5.98
2018-11-20T11:15:41.496Z,6.03
2018-11-20T11:16:41.482Z,6.05
2018-11-20T11:17:41.470Z,6.10
2018-11-20T11:18:41.472Z,6.17
2018-11-20T11:19:41.472Z,6.25
2018-11-20T11:20:41.637Z,6.17
2018-11-20T11:21:41.428Z,6.21
2018-11-20T11:22:41.428Z,6.30
2018-11-20T11:23:41.412Z,6.32
2018-11-20T11:24:41.428Z,6.27
2018-11-20T11:25:41.387Z,6.28
2018-11-20T11:26:41.378Z,6.25
2018-11-20T11:27:41.368Z,6.30
2018-11-20T11:28:41.358Z,6.25
2018-11-20T11:29:41.370Z,6.24
2018-11-20T11:30:41.335Z,6.33
2018-11-20T11:31:41.322Z,6.39
2018-11-20T11:32:41.318Z,6.35
2018-11-20T11:33:41.302Z,6.35
2018-11-20T11:34:41.321Z,6.38
2018-11-20T11:35:41.292Z,6.38
2018-11-20T11:36:42.427Z,6.46
2018-11-20T11:37:41.262Z,6.46
2018-11-20T11:38:41.250Z,6.50
2018-11-20T11:39:41.243Z,6.46
2018-11-20T11:40:41.445Z,6.43
2018-11-20T11:41:41.218Z,6.55
2018-11-20T11:42:41.206Z,6.46
2018-11-20T11:43:41.196Z,6.54
2018-11-20T11:44:41.188Z,6.58
2018-11-20T11:45:41.199Z,6.63
2018-11-20T11:46:41.166Z,6.58
2018-11-20T11:47:41.153Z,6.61
2018-11-20T11:48:41.142Z,6.61
2018-11-20T11:49:41.132Z,6.55
2018-11-20T11:50:41.145Z,6.42
2018-11-20T11:51:41.109Z,6.55
2018-11-20T11:52:41.099Z,6.50
2018-11-20T11:53:41.096Z,6.48
2018-11-20T11:54:41.094Z,6.45
2018-11-20T11:55:41.102Z,6.50
2018-11-20T11:56:41.063Z,6.42
2018-11-20T11:57:41.049Z,6.50
2018-11-20T11:58:41.037Z,6.43
2018-11-20T11:59:41.033Z,6.51
2018-11-20T12:00:41.015Z,6.46
2018-11-20T12:03:40.985Z,6.43
2018-11-20T12:04:40.999Z,6.51
2018-11-20T12:05:40.967Z,6.51
2018-11-20T12:06:40.974Z,6.50
2018-11-20T12:07:40.952Z,6.50
2018-11-20T12:08:40.936Z,6.54
2018-11-20T12:09:40.919Z,6.54
2018-11-20T12:10:40.915Z,6.53
2018-11-20T12:11:40.949Z,6.58
2018-11-20T12:12:40.889Z,6.46
2018-11-20T12:13:40.894Z,6.50
2018-11-20T12:14:40.870Z,6.42
2018-11-20T12:15:40.855Z,6.38
2018-11-20T12:16:40.845Z,6.48
2018-11-20T12:17:40.863Z,6.51
2018-11-20T12:18:40.832Z,6.55
2018-11-20T12:19:40.816Z,6.48
2018-11-20T12:20:43.313Z,6.45
2018-11-20T12:21:40.822Z,6.46
2018-11-20T12:22:40.833Z,6.54
2018-11-20T12:23:40.771Z,6.43
2018-11-20T12:24:40.760Z,6.55
2018-11-20T12:25:40.750Z,6.48
2018-11-20T12:26:40.740Z,6.45
2018-11-20T12:27:41.038Z,6.38
2018-11-20T12:28:40.739Z,6.53
2018-11-20T12:29:40.707Z,6.45
2018-11-20T12:30:40.701Z,6.40
2018-11-20T12:31:40.686Z,6.50
2018-11-20T12:32:40.684Z,6.58
2018-11-20T12:33:41.947Z,6.42
2018-11-20T12:34:40.656Z,6.51
2018-11-20T12:35:40.643Z,6.54
2018-11-20T12:36:40.645Z,6.55
2018-11-20T12:37:43.229Z,6.55
2018-11-20T12:38:41.415Z,6.54
2018-11-20T12:39:40.857Z,6.54
2018-11-20T12:40:40.600Z,6.53
2018-11-20T12:41:40.585Z,6.46
2018-11-20T12:42:41.083Z,6.51
2018-11-20T12:43:40.559Z,6.57
2018-11-20T12:44:40.572Z,6.48
2018-11-20T12:45:40.537Z,6.42
2018-11-20T12:46:40.527Z,6.51
2018-11-20T12:47:42.916Z,6.46
2018-11-20T12:48:40.512Z,6.48
2018-11-20T12:49:40.524Z,6.54
2018-11-20T12:50:40.484Z,6.42
2018-11-20T12:51:40.473Z,6.54
2018-11-20T12:52:41.300Z,6.50
2018-11-20T12:53:40.747Z,6.48
2018-11-20T12:54:40.495Z,6.63
2018-11-20T12:55:40.430Z,6.65
2018-11-20T12:56:40.422Z,6.64
2018-11-20T12:57:40.419Z,6.64
2018-11-20T12:58:40.402Z,6.64
2018-11-20T12:59:40.402Z,6.64
2018-11-20T13:00:40.416Z,6.69
2018-11-20T13:01:40.372Z,6.78
2018-11-20T13:02:40.361Z,6.76
2018-11-20T13:03:40.350Z,6.75
2018-11-20T13:04:40.336Z,6.82
2018-11-20T13:05:40.331Z,6.83
2018-11-20T13:06:40.349Z,6.86
2018-11-20T13:07:40.756Z,6.79
2018-11-20T13:08:40.712Z,6.79
2018-11-20T13:09:40.781Z,7.00
2018-11-20T13:10:40.272Z,7.00
2018-11-20T13:11:40.281Z,7.00
2018-11-20T13:12:40.282Z,6.96
2018-11-20T13:13:40.244Z,7.07
2018-11-20T13:14:40.232Z,7.07
2018-11-20T13:15:40.220Z,7.11
2018-11-20T13:16:40.213Z,7.09
2018-11-20T13:17:40.230Z,7.11
2018-11-20T13:18:40.187Z,7.07
2018-11-20T13:19:40.943Z,6.99
2018-11-20T13:20:40.186Z,7.01